Time;durP1;ratioP1;P1;durP2;ratioP2;P2;SDS_P1;SDS_P2;PMS_P1;PMS_P2;Temp;Humidity;BMP_temperature;BMP_pressure;BME280_temperature;BME280_humidity;BME280_pressure;Samples;Min_cycle;Max_cycle;Signal;HPM_P1;HPM_P2
2024/03/07 00:00:36;;;;;;;33.72;19.40;;;;;;;8.22;44.61;102079.16;5091326;28;20406;-74
2024/03/07 00:03:05;;;;;;;32.45;18.92;;;;;;;8.20;44.83;102082.91;5090572;28;20098;-73
2024/03/07 00:05:33;;;;;;;35.50;20.98;;;;;;;8.16;44.67;102089.53;5090408;28;20501;-76
2024/03/07 00:08:01;;;;;;;34.88;20.30;;;;;;;8.13;45.07;102089.66;5099547;28;20042;-75
2024/03/07 00:10:29;;;;;;;33.08;19.65;;;;;;;8.09;44.89;102086.25;5070629;28;20048;-75
2024/03/07 00:13:00;;;;;;;32.05;20.15;;;;;;;8.08;45.19;102094.53;5098482;28;20524;-75
2024/03/07 00:15:31;;;;;;;34.05;19.92;;;;;;;8.04;44.83;102090.19;5089021;28;20044;-76
2024/03/07 00:18:00;;;;;;;35.63;19.77;;;;;;;8.01;45.15;102093.13;5095944;28;20036;-76
2024/03/07 00:20:29;;;;;;;36.25;19.48;;;;;;;7.97;45.21;102086.94;5092081;28;20071;-73
2024/03/07 00:22:57;;;;;;;35.40;20.52;;;;;;;7.95;44.84;102088.88;5092340;28;20472;-74
2024/03/07 00:25:24;;;;;;;35.15;21.05;;;;;;;7.92;45.46;102086.34;5088283;28;20568;-73
2024/03/07 00:27:53;;;;;;;35.45;19.42;;;;;;;7.90;45.31;102083.69;5101649;28;20074;-73
2024/03/07 00:30:21;;;;;;;38.63;21.27;;;;;;;7.89;45.51;102079.22;5088529;28;20040;-76
2024/03/07 00:32:51;;;;;;;34.40;20.40;;;;;;;7.89;45.34;102076.47;5073424;28;20102;-75
2024/03/07 00:35:20;;;;;;;35.42;21.52;;;;;;;7.87;45.62;102082.97;5091180;28;20032;-76
2024/03/07 00:37:48;;;;;;;35.10;19.42;;;;;;;7.85;45.22;102083.06;5073141;28;20514;-75
2024/03/07 00:40:16;;;;;;;33.10;19.33;;;;;;;7.84;45.50;102083.19;5074335;28;20119;-76
2024/03/07 00:42:44;;;;;;;33.50;20.25;;;;;;;7.84;45.44;102085.91;5075381;28;20044;-76
2024/03/07 00:45:12;;;;;;;34.13;19.98;;;;;;;7.83;45.31;102081.41;5069653;28;20054;-76
2024/03/07 00:47:40;;;;;;;35.70;20.45;;;;;;;7.81;45.48;102081.50;5070477;28;20063;-76
2024/03/07 00:50:10;;;;;;;35.42;20.85;;;;;;;7.82;45.44;102083.25;5090708;28;20033;-76
2024/03/07 00:52:39;;;;;;;32.25;19.80;;;;;;;7.79;45.48;102077.97;5071637;28;20067;-75
2024/03/07 00:55:09;;;;;;;31.58;19.33;;;;;;;7.79;45.41;102075.25;5088463;28;20049;-76
2024/03/07 00:57:37;;;;;;;34.17;20.33;;;;;;;7.77;45.29;102079.00;5094700;28;20052;-76
2024/03/07 01:00:11;;;;;;;32.88;18.98;;;;;;;7.78;45.30;102072.59;5068947;28;20538;-76
2024/03/07 01:02:43;;;;;;;31.63;19.85;;;;;;;7.76;45.45;102074.56;5085083;28;20102;-76
2024/03/07 01:05:14;;;;;;;35.80;20.25;;;;;;;7.77;45.49;102070.84;5087667;28;20048;-75
2024/03/07 01:07:42;;;;;;;34.85;20.60;;;;;;;7.74;45.64;102079.19;5093683;28;20414;-76
2024/03/07 01:10:11;;;;;;;36.00;21.00;;;;;;;7.73;45.39;102070.16;5073700;28;20605;-76
2024/03/07 01:12:39;;;;;;;31.48;19.02;;;;;;;7.73;45.36;102066.53;5071596;28;20068;-76
2024/03/07 01:15:08;;;;;;;32.63;19.15;;;;;;;7.74;45.29;102076.47;5076294;28;20036;-75
2024/03/07 01:17:36;;;;;;;36.53;20.10;;;;;;;7.72;45.51;102062.94;5078420;28;20040;-75
2024/03/07 01:20:05;;;;;;;34.20;19.60;;;;;;;7.72;45.62;102062.06;5081273;28;20037;-75
2024/03/07 01:22:35;;;;;;;35.63;20.10;;;;;;;7.72;45.40;102062.94;5092124;28;20047;-76
2024/03/07 01:25:04;;;;;;;32.78;19.98;;;;;;;7.70;45.23;102063.97;5089135;28;20044;-76
2024/03/07 01:27:32;;;;;;;34.60;19.33;;;;;;;7.69;45.42;102059.50;5081561;28;20517;-76
2024/03/07 01:30:01;;;;;;;35.10;19.42;;;;;;;7.67;45.71;102062.31;5088798;28;20506;-75
2024/03/07 01:32:30;;;;;;;37.13;20.00;;;;;;;7.65;45.69;102056.06;5071256;28;20036;-75
2024/03/07 01:34:58;;;;;;;35.72;19.83;;;;;;;7.63;45.39;102049.81;5093699;28;20044;-76
2024/03/07 01:37:26;;;;;;;34.83;20.58;;;;;;;7.62;45.26;102052.63;5068501;28;20047;-75
2024/03/07 01:39:55;;;;;;;31.58;18.58;;;;;;;7.62;45.36;102048.06;5069921;28;20070;-75
2024/03/07 01:42:24;;;;;;;34.28;19.05;;;;;;;7.57;45.35;102042.88;5088195;28;20040;-75
2024/03/07 01:44:52;;;;;;;30.70;18.83;;;;;;;7.56;45.36;102041.13;5097413;28;20406;-77
2024/03/07 01:47:21;;;;;;;33.13;20.10;;;;;;;7.55;45.34;102050.25;5076190;28;20093;-74
2024/03/07 01:49:49;;;;;;;34.55;20.15;;;;;;;7.54;45.55;102040.31;5099441;28;20064;-74
2024/03/07 01:52:18;;;;;;;33.70;19.63;;;;;;;7.54;45.62;102048.50;5091627;28;20040;-75
2024/03/07 01:54:47;;;;;;;35.83;18.75;;;;;;;7.53;45.36;102043.13;5094488;28;20537;-74
2024/03/07 01:57:18;;;;;;;34.55;19.85;;;;;;;7.52;45.35;102039.53;5097592;28;20528;-74
2024/03/07 01:59:46;;;;;;;31.98;19.55;;;;;;;7.49;45.61;102037.00;5078205;28;20048;-74
2024/03/07 02:02:14;;;;;;;32.53;18.63;;;;;;;7.49;45.64;102030.66;5079224;28;20036;-74
2024/03/07 02:04:42;;;;;;;32.03;19.00;;;;;;;7.48;45.53;102035.22;5066496;28;20360;-74
2024/03/07 02:07:11;;;;;;;26.92;16.80;;;;;;;7.47;45.20;102022.56;5094258;28;20044;-74
2024/03/07 02:09:39;;;;;;;27.70;17.05;;;;;;;7.47;45.62;102021.69;5100514;28;20051;-74
2024/03/07 02:12:08;;;;;;;29.40;17.40;;;;;;;7.47;45.39;102018.97;5097701;28;20140;-73
2024/03/07 02:14:38;;;;;;;30.63;18.65;;;;;;;7.48;45.46;102016.16;5065703;28;20051;-74
2024/03/07 02:17:06;;;;;;;34.65;19.08;;;;;;;7.47;45.47;102017.13;5082994;28;20040;-74
2024/03/07 02:19:34;;;;;;;31.27;18.02;;;;;;;7.46;45.25;102012.63;5099739;28;20044;-74
2024/03/07 02:22:03;;;;;;;30.13;17.90;;;;;;;7.47;45.57;102013.53;5093538;28;20104;-74
2024/03/07 02:24:31;;;;;;;31.92;17.42;;;;;;;7.45;45.05;102016.31;5091537;28;20326;-74
2024/03/07 02:27:00;;;;;;;32.45;18.42;;;;;;;7.44;45.41;102011.84;5087626;28;20036;-74
2024/03/07 02:29:28;;;;;;;28.42;17.52;;;;;;;7.44;45.40;102006.38;5078161;28;20348;-74
2024/03/07 02:31:56;;;;;;;31.10;18.00;;;;;;;7.43;44.96;102003.78;5101842;28;20418;-74
2024/03/07 02:34:25;;;;;;;31.63;17.33;;;;;;;7.43;45.28;102007.38;5076215;28;20097;-74
2024/03/07 02:36:53;;;;;;;31.67;18.08;;;;;;;7.41;44.99;102003.84;5088401;28;20089;-74
2024/03/07 02:39:24;;;;;;;30.27;17.77;;;;;;;7.41;45.18;101997.53;5101155;28;20047;-74
2024/03/07 02:41:52;;;;;;;28.20;17.65;;;;;;;7.39;45.07;101992.16;5093530;28;20507;-74
2024/03/07 02:44:20;;;;;;;30.05;17.98;;;;;;;7.38;45.13;101990.41;5065580;28;20036;-74
2024/03/07 02:46:48;;;;;;;27.90;17.13;;;;;;;7.37;45.31;101996.81;5091705;28;20133;-73
2024/03/07 02:49:16;;;;;;;28.42;16.85;;;;;;;7.36;44.99;101994.16;5092982;28;20383;-74
2024/03/07 02:51:45;;;;;;;31.00;17.98;;;;;;;7.34;44.76;101991.56;5099412;28;20040;-74
2024/03/07 02:54:13;;;;;;;28.88;17.40;;;;;;;7.33;44.94;101997.09;5074217;28;20455;-74
2024/03/07 02:56:43;;;;;;;31.00;17.20;;;;;;;7.31;44.89;101993.56;5076121;28;20660;-74
2024/03/07 02:59:11;;;;;;;29.75;17.83;;;;;;;7.26;44.53;101996.56;5099834;28;20536;-74
2024/03/07 03:01:39;;;;;;;27.70;16.88;;;;;;;7.24;44.54;101994.88;5073334;28;20044;-75
2024/03/07 03:04:07;;;;;;;30.83;18.10;;;;;;;7.19;44.52;101986.94;5089173;28;20047;-74
2024/03/07 03:06:35;;;;;;;29.65;18.40;;;;;;;7.16;44.48;101989.84;5095122;28;20044;-73
2024/03/07 03:09:05;;;;;;;27.55;16.42;;;;;;;7.13;44.42;101992.72;5093700;28;20575;-74
2024/03/07 03:11:33;;;;;;;31.20;17.88;;;;;;;7.10;44.44;101991.06;5086882;28;20071;-74
2024/03/07 03:14:03;;;;;;;26.80;16.67;;;;;;;7.08;44.72;101986.66;5086848;28;20036;-74
2024/03/07 03:16:32;;;;;;;24.27;16.00;;;;;;;7.03;44.45;101983.31;5097640;28;20050;-73
2024/03/07 03:19:14;;;;;;;;;;;;;;;6.73;45.57;101988.53;5095331;28;20043;-74
2024/03/07 03:21:43;;;;;;;25.02;14.52;;;;;;;6.89;44.84;101984.06;5090739;28;19920;-74
2024/03/07 03:24:11;;;;;;;25.60;15.80;;;;;;;6.89;44.58;101980.47;5096533;28;20456;-73
2024/03/07 03:26:42;;;;;;;26.95;16.13;;;;;;;6.86;44.45;101976.06;5073240;28;20050;-74
2024/03/07 03:29:13;;;;;;;26.20;16.38;;;;;;;6.83;44.76;101973.53;5097649;28;20089;-73
2024/03/07 03:31:41;;;;;;;26.83;15.73;;;;;;;6.79;44.62;101980.09;5084810;28;20059;-74
2024/03/07 03:34:09;;;;;;;24.00;15.15;;;;;;;6.77;44.68;101980.19;5096419;28;20067;-74
2024/03/07 03:36:38;;;;;;;26.10;15.35;;;;;;;6.74;44.93;101972.19;5091548;28;20063;-74
2024/03/07 03:39:07;;;;;;;24.98;15.82;;;;;;;6.71;44.79;101969.56;5091184;28;20067;-75
2024/03/07 03:41:35;;;;;;;27.67;16.77;;;;;;;6.69;44.80;101960.66;5085305;28;20414;-74
2024/03/07 03:44:03;;;;;;;25.80;16.17;;;;;;;6.68;44.98;101963.44;5072750;28;20108;-74
2024/03/07 03:46:33;;;;;;;26.95;16.00;;;;;;;6.68;44.96;101972.47;5104766;28;20035;-75
2024/03/07 03:49:01;;;;;;;25.58;14.55;;;;;;;6.64;44.83;101968.16;5093121;28;20035;-74
2024/03/07 03:51:29;;;;;;;27.27;15.98;;;;;;;6.62;45.01;101963.75;5074823;28;20238;-74
2024/03/07 03:53:57;;;;;;;25.95;15.77;;;;;;;6.61;44.75;101968.31;5077738;28;20101;-75
2024/03/07 03:56:26;;;;;;;24.92;15.43;;;;;;;6.59;44.61;101970.25;5077560;28;20048;-74
2024/03/07 03:58:54;;;;;;;25.10;16.05;;;;;;;6.58;44.77;101960.34;5074125;28;20036;-74
2024/03/07 04:01:22;;;;;;;27.55;16.10;;;;;;;6.58;45.11;101964.88;5090478;28;20064;-73
2024/03/07 04:03:51;;;;;;;26.33;15.70;;;;;;;6.58;45.19;101964.88;5071624;28;20044;-74
2024/03/07 04:06:20;;;;;;;25.52;15.88;;;;;;;6.58;45.10;101962.16;5083278;28;20047;-73
2024/03/07 04:08:48;;;;;;;27.98;16.73;;;;;;;6.56;44.69;101955.94;5102345;28;20039;-73
2024/03/07 04:11:16;;;;;;;26.65;16.27;;;;;;;6.55;44.79;101962.31;5077642;28;20509;-74
2024/03/07 04:13:46;;;;;;;25.73;15.98;;;;;;;6.55;44.59;101962.31;5071422;28;20055;-74
2024/03/07 04:16:15;;;;;;;26.95;17.17;;;;;;;6.53;44.98;101956.97;5072622;28;20043;-73
2024/03/07 04:18:43;;;;;;;26.67;15.93;;;;;;;6.50;44.94;101953.53;5090758;28;20068;-74
2024/03/07 04:21:12;;;;;;;24.65;15.77;;;;;;;6.50;44.99;101958.97;5072936;28;20112;-73
2024/03/07 04:23:41;;;;;;;25.92;16.50;;;;;;;6.45;45.03;101957.38;5078069;28;20138;-73
2024/03/07 04:26:09;;;;;;;25.50;16.45;;;;;;;6.43;44.65;101953.88;5075576;28;20044;-74
2024/03/07 04:28:37;;;;;;;25.42;15.40;;;;;;;6.42;44.71;101953.94;5101292;28;20144;-75
2024/03/07 04:31:04;;;;;;;25.70;16.17;;;;;;;6.40;44.67;101953.16;5104395;28;20067;-73
2024/03/07 04:33:32;;;;;;;28.17;17.15;;;;;;;6.38;45.03;101953.22;5095888;28;20416;-73
2024/03/07 04:36:02;;;;;;;23.55;15.60;;;;;;;6.36;44.92;101955.16;5095006;28;20463;-73
2024/03/07 04:38:32;;;;;;;28.52;16.73;;;;;;;6.37;45.08;101964.16;5091146;28;20052;-74
2024/03/07 04:41:00;;;;;;;26.80;16.35;;;;;;;6.33;45.15;101954.44;5104151;28;20075;-74
2024/03/07 04:43:28;;;;;;;25.98;15.50;;;;;;;6.31;44.88;101964.50;5080352;28;20044;-74
2024/03/07 04:45:56;;;;;;;27.73;16.65;;;;;;;6.30;44.91;101957.31;5077476;28;20047;-74
2024/03/07 04:48:24;;;;;;;24.23;15.60;;;;;;;6.28;45.01;101962.81;5075142;28;20043;-74
2024/03/07 04:50:52;;;;;;;25.15;16.33;;;;;;;6.27;45.06;101962.91;5097569;28;20123;-74
2024/03/07 04:53:19;;;;;;;26.25;15.77;;;;;;;6.27;45.23;101961.09;5075342;28;20131;-73
2024/03/07 04:55:49;;;;;;;27.27;16.55;;;;;;;6.29;45.17;101958.25;5088925;28;20056;-73
2024/03/07 04:58:17;;;;;;;25.90;15.98;;;;;;;6.28;45.28;101959.25;5076741;28;20523;-74
2024/03/07 05:00:45;;;;;;;27.25;15.95;;;;;;;6.28;45.11;101959.25;5094989;28;20044;-74
2024/03/07 05:03:12;;;;;;;25.08;15.35;;;;;;;6.28;45.23;101968.25;5094096;28;20031;-74
2024/03/07 05:05:42;;;;;;;27.08;16.52;;;;;;;6.30;45.45;101957.31;5095791;28;20123;-74
2024/03/07 05:08:10;;;;;;;25.88;15.63;;;;;;;6.30;44.99;101969.06;5092992;28;20058;-73
2024/03/07 05:10:38;;;;;;;23.85;15.98;;;;;;;6.31;45.28;101964.50;5095959;28;20197;-73
2024/03/07 05:13:07;;;;;;;25.88;16.20;;;;;;;6.32;44.97;101964.41;5095155;28;20584;-73
2024/03/07 05:15:35;;;;;;;25.85;16.45;;;;;;;6.32;45.27;101966.25;5072971;28;20052;-73
2024/03/07 05:18:07;;;;;;;26.20;16.67;;;;;;;6.31;45.02;101972.66;5089481;28;20136;-74
2024/03/07 05:20:35;;;;;;;27.23;16.75;;;;;;;6.31;45.02;101965.38;5071333;28;20274;-74
2024/03/07 05:23:05;;;;;;;24.52;15.35;;;;;;;6.32;44.94;101967.16;5069812;28;20153;-74
2024/03/07 05:25:33;;;;;;;26.48;16.80;;;;;;;6.32;45.26;101960.81;5088153;28;20032;-74
2024/03/07 05:28:02;;;;;;;26.40;16.17;;;;;;;6.33;45.07;101966.19;5088358;28;20581;-74
2024/03/07 05:30:33;;;;;;;25.80;15.80;;;;;;;6.35;45.34;101969.72;5094422;28;20040;-74
2024/03/07 05:33:01;;;;;;;25.05;15.73;;;;;;;6.35;44.99;101963.41;5067144;28;20523;-74
2024/03/07 05:35:30;;;;;;;24.08;14.68;;;;;;;6.37;45.12;101966.88;5083821;28;20054;-73
2024/03/07 05:37:59;;;;;;;24.45;14.70;;;;;;;6.38;44.90;101969.53;5072081;28;20048;-74
2024/03/07 05:40:27;;;;;;;23.17;14.73;;;;;;;6.39;45.08;101970.41;5097313;28;20127;-73
2024/03/07 05:42:56;;;;;;;24.83;14.73;;;;;;;6.40;45.06;101964.91;5069369;28;20039;-74
2024/03/07 05:45:24;;;;;;;26.02;15.90;;;;;;;6.40;45.13;101959.47;5093658;28;20047;-74
2024/03/07 05:47:53;;;;;;;26.50;15.27;;;;;;;6.40;44.83;101967.63;5080542;28;20098;-74
2024/03/07 05:50:21;;;;;;;24.77;15.10;;;;;;;6.39;44.65;101959.53;5092004;28;20043;-74
2024/03/07 05:52:49;;;;;;;22.83;15.27;;;;;;;6.38;44.74;101963.22;5082358;28;20039;-74
2024/03/07 05:55:19;;;;;;;24.58;16.48;;;;;;;6.35;44.78;101964.28;5092553;28;20124;-74
2024/03/07 05:57:47;;;;;;;25.30;15.65;;;;;;;6.34;44.86;101958.91;5091862;28;20051;-74
2024/03/07 06:00:19;;;;;;;27.20;16.58;;;;;;;6.32;44.54;101959.00;5077018;28;20044;-74
2024/03/07 06:02:47;;;;;;;23.67;15.07;;;;;;;6.29;44.65;101959.13;5087623;28;20048;-73
2024/03/07 06:05:16;;;;;;;23.60;14.88;;;;;;;6.30;44.81;101963.63;5087890;28;20036;-74
2024/03/07 06:07:45;;;;;;;22.20;14.70;;;;;;;6.28;44.94;101957.38;5094774;28;20035;-74
2024/03/07 06:10:16;;;;;;;23.98;15.55;;;;;;;6.25;44.83;101960.28;5074554;28;20380;-73
2024/03/07 06:12:45;;;;;;;25.23;16.00;;;;;;;6.25;44.91;101959.38;5078140;28;20097;-73
2024/03/07 06:15:32;;;;;;;24.60;15.50;;;;;;;6.22;44.98;101962.25;5071031;28;20040;-74
2024/03/07 06:18:00;;;;;;;26.13;16.50;;;;;;;6.21;44.77;101960.50;5095664;28;20514;-73
2024/03/07 06:20:29;;;;;;;27.35;16.65;;;;;;;6.21;44.76;101958.66;5075367;28;20422;-73
2024/03/07 06:22:59;;;;;;;24.48;16.52;;;;;;;6.20;45.02;101961.47;5095083;28;20453;-74
2024/03/07 06:25:36;;;;;;;23.88;16.08;;;;;;;6.18;44.88;101964.28;5095635;28;20499;-73
2024/03/07 06:28:10;;;;;;;28.13;16.38;;;;;;;6.17;44.83;101973.38;5084414;28;20051;-73
2024/03/07 06:30:40;;;;;;;23.15;14.90;;;;;;;6.17;44.78;101972.50;5083732;28;20058;-73
2024/03/07 06:33:08;;;;;;;27.38;17.08;;;;;;;6.16;44.93;101971.63;5089495;28;20063;-73
2024/03/07 06:35:41;;;;;;;28.83;16.40;;;;;;;6.18;44.84;101966.09;5073036;28;20054;-75
2024/03/07 06:38:10;;;;;;;27.27;16.63;;;;;;;6.13;44.78;101962.72;5064349;28;20140;-73
2024/03/07 06:40:40;;;;;;;24.88;16.67;;;;;;;6.13;44.97;101963.59;5071986;28;20044;-73
2024/03/07 06:43:09;;;;;;;26.65;16.80;;;;;;;6.12;44.92;101959.13;5082966;28;20040;-73
2024/03/07 06:45:38;;;;;;;24.25;16.08;;;;;;;6.09;45.15;101962.03;5086089;28;20533;-73
2024/03/07 06:48:07;;;;;;;24.80;16.10;;;;;;;6.12;44.88;101963.72;5087085;28;20114;-73
2024/03/07 06:50:35;;;;;;;26.98;16.55;;;;;;;6.10;44.96;101960.19;5091156;28;20043;-73
2024/03/07 06:53:07;;;;;;;24.80;16.60;;;;;;;6.12;45.27;101961.00;5091147;28;20035;-73
2024/03/07 06:55:37;;;;;;;27.17;16.30;;;;;;;6.13;45.82;101965.44;5089952;28;20248;-74
2024/03/07 06:58:05;;;;;;;26.92;17.38;;;;;;;6.15;46.39;101969.84;5090116;28;20457;-73
2024/03/07 07:00:35;;;;;;;25.52;16.45;;;;;;;6.20;46.71;101956.88;5090087;28;20051;-74
2024/03/07 07:03:05;;;;;;;27.48;16.67;;;;;;;6.31;46.99;101964.50;5072285;28;20521;-74
2024/03/07 07:05:34;;;;;;;24.90;17.08;;;;;;;6.39;47.37;101963.13;5089994;28;20074;-73
2024/03/07 07:08:04;;;;;;;28.55;16.55;;;;;;;6.52;47.53;101970.66;5072830;28;20127;-74
2024/03/07 07:10:33;;;;;;;25.27;15.18;;;;;;;6.68;47.24;101969.75;5072529;28;20072;-73
2024/03/07 07:13:01;;;;;;;24.77;16.08;;;;;;;6.82;47.79;101961.75;5090897;28;20453;-74
2024/03/07 07:15:29;;;;;;;26.60;16.70;;;;;;;6.99;47.78;101968.13;5089384;28;20048;-73
2024/03/07 07:17:57;;;;;;;26.25;16.67;;;;;;;7.17;47.82;101972.56;5091263;28;20033;-74
2024/03/07 07:20:25;;;;;;;25.30;15.85;;;;;;;7.35;47.47;101967.94;5086569;28;20048;-73
2024/03/07 07:22:54;;;;;;;25.75;16.13;;;;;;;7.53;47.35;101970.47;5090735;28;20441;-74
2024/03/07 07:25:22;;;;;;;24.30;15.73;;;;;;;7.71;47.39;101959.47;5089681;28;20423;-74
2024/03/07 07:27:53;;;;;;;23.92;16.00;;;;;;;7.91;46.44;101961.91;5090367;28;20044;-74
2024/03/07 07:30:23;;;;;;;24.02;15.88;;;;;;;8.08;46.73;101961.81;5090195;28;20051;-73
2024/03/07 07:32:52;;;;;;;23.95;16.15;;;;;;;8.23;46.73;101960.91;5091144;28;20040;-73
2024/03/07 07:35:21;;;;;;;22.67;15.52;;;;;;;8.39;46.32;101959.97;5071037;28;20050;-74
2024/03/07 07:37:53;;;;;;;22.10;15.63;;;;;;;8.54;45.45;101964.47;5087357;28;20032;-73
2024/03/07 07:40:23;;;;;;;21.60;14.68;;;;;;;8.64;45.05;101952.91;5089081;28;20048;-74
2024/03/07 07:42:53;;;;;;;22.75;14.57;;;;;;;8.76;44.10;101964.03;5086937;28;20113;-73
2024/03/07 07:45:23;;;;;;;19.38;13.23;;;;;;;8.81;44.14;101956.44;5090424;28;20498;-73
2024/03/07 07:47:52;;;;;;;21.20;14.50;;;;;;;8.85;44.00;101953.41;5070779;28;20040;-74
2024/03/07 07:50:22;;;;;;;20.17;14.00;;;;;;;8.88;43.72;101955.06;5088343;28;20105;-74
2024/03/07 07:52:53;;;;;;;21.90;14.10;;;;;;;8.90;43.32;101951.28;5087305;28;20503;-74
2024/03/07 07:55:22;;;;;;;19.27;13.30;;;;;;;8.91;43.16;101949.44;5090338;28;20210;-75
2024/03/07 07:57:53;;;;;;;19.58;13.90;;;;;;;8.92;42.34;101943.84;5089284;28;20132;-74
2024/03/07 08:00:22;;;;;;;19.23;13.70;;;;;;;8.91;42.15;101952.16;5068782;28;20250;-75
2024/03/07 08:02:51;;;;;;;19.83;13.70;;;;;;;8.90;41.81;101953.13;5100961;28;20499;-75
2024/03/07 08:05:22;;;;;;;18.38;13.48;;;;;;;8.85;41.99;101949.78;5066947;28;20121;-74
2024/03/07 08:07:51;;;;;;;20.67;14.63;;;;;;;8.81;41.25;101953.72;5090549;28;20066;-74
2024/03/07 08:10:20;;;;;;;19.35;13.00;;;;;;;8.76;41.24;101950.38;5093612;28;20051;-74
2024/03/07 08:12:48;;;;;;;19.15;13.38;;;;;;;8.70;41.73;101947.06;5093100;28;20567;-75
2024/03/07 08:15:18;;;;;;;20.75;13.88;;;;;;;8.66;41.29;101941.91;5089601;28;20683;-75
2024/03/07 08:17:48;;;;;;;18.23;12.77;;;;;;;8.63;41.04;101953.00;5088714;28;20048;-75
2024/03/07 08:20:18;;;;;;;18.05;12.40;;;;;;;8.59;41.44;101945.97;5072222;28;20434;-75
2024/03/07 08:22:46;;;;;;;20.77;13.35;;;;;;;8.55;41.17;101949.88;5090310;28;20414;-75
2024/03/07 08:25:15;;;;;;;21.20;13.23;;;;;;;8.54;41.10;101954.44;5075414;28;20569;-75
2024/03/07 08:27:46;;;;;;;17.98;12.63;;;;;;;8.53;41.26;101952.69;5071125;28;20059;-75
2024/03/07 08:30:15;;;;;;;18.90;13.05;;;;;;;8.51;41.38;101953.75;5090232;28;20040;-75
2024/03/07 08:32:46;;;;;;;19.20;12.35;;;;;;;8.51;40.82;101954.63;5075191;28;20040;-75
2024/03/07 08:35:16;;;;;;;19.10;12.48;;;;;;;8.48;41.18;101952.09;5093802;28;20546;-74
2024/03/07 08:37:45;;;;;;;17.98;11.68;;;;;;;8.50;41.07;101954.75;5067526;28;20035;-74
2024/03/07 08:40:19;;;;;;;18.55;11.88;;;;;;;8.50;40.95;101960.22;5071215;28;20036;-74
2024/03/07 08:42:50;;;;;;;19.77;11.93;;;;;;;8.49;40.65;101959.31;5068452;28;20518;-75
2024/03/07 08:45:19;;;;;;;18.92;12.93;;;;;;;8.48;40.55;101954.84;5089871;28;20482;-74
2024/03/07 08:47:50;;;;;;;17.77;12.00;;;;;;;8.49;39.84;101944.81;5087406;28;20040;-74
2024/03/07 08:50:19;;;;;;;18.73;11.88;;;;;;;8.48;40.42;101949.38;5072607;28;20040;-74
2024/03/07 08:52:48;;;;;;;15.95;11.38;;;;;;;8.45;40.08;101946.81;5098969;28;20040;-75
2024/03/07 08:55:16;;;;;;;15.65;10.60;;;;;;;8.46;39.91;101934.06;5069906;28;20040;-74
2024/03/07 08:57:46;;;;;;;16.23;10.65;;;;;;;8.45;39.89;101938.66;5076989;28;20086;-75
2024/03/07 09:00:22;;;;;;;17.70;11.68;;;;;;;8.46;39.81;101944.97;5071438;28;20409;-75
2024/03/07 09:02:53;;;;;;;16.50;10.18;;;;;;;8.48;39.56;101932.13;5099406;28;20364;-75
2024/03/07 09:05:22;;;;;;;17.58;10.77;;;;;;;8.47;39.60;101935.81;5089148;28;20048;-74
2024/03/07 09:07:51;;;;;;;18.60;11.35;;;;;;;8.48;39.64;101926.69;5087689;28;20040;-74
2024/03/07 09:10:20;;;;;;;15.27;10.43;;;;;;;8.51;39.68;101934.66;5080312;28;20040;-74
2024/03/07 09:12:51;;;;;;;14.77;10.00;;;;;;;8.54;38.85;101926.28;5069869;28;20047;-74
2024/03/07 09:15:21;;;;;;;16.30;9.95;;;;;;;8.54;39.63;101924.44;5059609;28;20048;-75
2024/03/07 09:17:52;;;;;;;17.55;11.48;;;;;;;8.58;38.84;101926.03;5092256;28;20054;-74
2024/03/07 09:20:21;;;;;;;17.77;11.73;;;;;;;8.59;39.33;101927.75;5067137;28;20090;-74
2024/03/07 09:22:50;;;;;;;18.05;10.55;;;;;;;8.64;39.59;101922.00;5092038;28;20445;-74
2024/03/07 09:25:19;;;;;;;15.85;10.15;;;;;;;8.67;39.06;101928.13;5075403;28;20043;-74
2024/03/07 09:27:48;;;;;;;16.95;10.65;;;;;;;8.71;39.45;101920.66;5091071;28;20515;-74
2024/03/07 09:30:19;;;;;;;16.60;10.73;;;;;;;8.74;39.42;101914.13;5098614;28;20096;-74
2024/03/07 09:32:48;;;;;;;15.40;10.63;;;;;;;8.77;39.31;101923.00;5081250;28;20123;-75
2024/03/07 09:35:18;;;;;;;15.90;10.32;;;;;;;8.82;38.79;101912.69;5074850;28;20558;-75
2024/03/07 09:37:46;;;;;;;14.77;9.98;;;;;;;8.85;38.98;101917.03;5062435;28;20380;-75
2024/03/07 09:40:14;;;;;;;15.02;10.15;;;;;;;8.89;38.68;101916.75;5090190;28;20045;-75
2024/03/07 09:42:46;;;;;;;15.38;10.00;;;;;;;8.92;38.47;101916.53;5071943;28;20523;-75
2024/03/07 09:45:17;;;;;;;15.82;10.45;;;;;;;8.94;38.43;101917.34;5068423;28;20090;-74
2024/03/07 09:47:48;;;;;;;15.73;10.10;;;;;;;8.97;38.22;101919.88;5075062;28;20044;-73
2024/03/07 09:50:21;;;;;;;15.73;10.27;;;;;;;8.99;38.16;101917.06;5082571;28;20044;-73
2024/03/07 09:52:53;;;;;;;14.05;9.90;;;;;;;8.99;38.32;101925.25;5093919;28;20415;-75
2024/03/07 09:55:23;;;;;;;16.42;11.00;;;;;;;8.98;38.17;101918.03;5093289;28;20040;-73
2024/03/07 09:57:55;;;;;;;16.58;10.68;;;;;;;8.98;37.99;101907.97;5066807;28;20056;-75
2024/03/07 10:00:25;;;;;;;15.77;10.00;;;;;;;8.98;37.94;101918.91;5075434;28;20567;-74
2024/03/07 10:02:57;;;;;;;14.82;10.07;;;;;;;8.97;38.11;101910.81;5099502;28;20040;-74
2024/03/07 10:05:29;;;;;;;16.50;10.95;;;;;;;8.94;37.54;101911.88;5075028;28;20040;-75
2024/03/07 10:07:58;;;;;;;15.83;9.97;;;;;;;8.91;38.01;101920.28;5095533;28;20044;-75
2024/03/07 10:10:25;;;;;;;14.13;9.48;;;;;;;8.92;38.18;101918.41;5090430;28;20038;-75
2024/03/07 10:12:54;;;;;;;15.77;9.98;;;;;;;8.91;37.86;101913.94;5093494;28;20123;-74
2024/03/07 10:15:22;;;;;;;15.50;10.38;;;;;;;8.87;38.07;101909.63;5063193;28;20036;-72
2024/03/07 10:17:51;;;;;;;15.55;10.57;;;;;;;8.86;37.82;101919.69;5071522;28;20055;-75
2024/03/07 10:20:22;;;;;;;16.77;10.63;;;;;;;8.85;37.88;101919.78;5073950;28;20032;-75
2024/03/07 10:22:52;;;;;;;14.63;9.90;;;;;;;8.85;37.95;101914.31;5075813;28;20055;-74
2024/03/07 10:25:24;;;;;;;15.98;10.10;;;;;;;8.81;37.77;101910.03;5070126;28;20040;-75
2024/03/07 10:27:52;;;;;;;15.70;10.45;;;;;;;8.77;38.12;101909.34;5094444;28;20062;-75
2024/03/07 10:30:21;;;;;;;14.90;9.93;;;;;;;8.78;37.89;101904.75;5097779;28;20032;-75
2024/03/07 10:32:54;;;;;;;15.85;9.95;;;;;;;8.77;37.65;101894.81;5088398;28;20118;-75
2024/03/07 10:35:24;;;;;;;16.40;10.20;;;;;;;8.73;38.21;101896.00;5087223;28;20453;-75
2024/03/07 10:37:55;;;;;;;14.60;10.32;;;;;;;8.75;37.76;101892.22;5075142;28;20583;-75
2024/03/07 10:40:25;;;;;;;16.13;10.55;;;;;;;8.73;38.05;101896.00;5074534;28;20100;-73
2024/03/07 10:42:57;;;;;;;18.15;11.15;;;;;;;8.70;37.89;101888.88;5095316;28;20111;-75
2024/03/07 10:45:30;;;;;;;15.75;11.13;;;;;;;8.67;37.49;101892.66;5090396;28;20048;-74
2024/03/07 10:48:00;;;;;;;14.10;9.63;;;;;;;8.62;38.26;101875.72;5095029;28;20036;-74
2024/03/07 10:50:44;;;;;;;16.75;10.75;;;;;;;8.64;37.22;101886.53;5074271;28;20461;-75
2024/03/07 10:53:23;;;;;;;16.17;10.00;;;;;;;8.60;37.58;101883.13;5085746;28;20088;-74
2024/03/07 10:56:13;;;;;;;15.45;9.95;;;;;;;8.60;37.54;101868.59;5084873;28;20048;-75
2024/03/07 10:58:49;;;;;;;14.85;9.40;;;;;;;8.61;38.12;101873.06;5071330;28;20139;-75
2024/03/07 11:01:21;;;;;;;15.75;9.75;;;;;;;8.63;38.20;101865.69;5084620;28;20081;-75
2024/03/07 11:03:51;;;;;;;16.43;10.13;;;;;;;8.61;38.81;101863.03;5085233;28;20568;-75
2024/03/07 11:06:21;;;;;;;14.88;9.43;;;;;;;8.65;38.59;101861.88;5097598;28;20564;-75
2024/03/07 11:08:52;;;;;;;14.60;10.00;;;;;;;8.69;37.97;101868.88;5095357;28;20135;-75
2024/03/07 11:11:23;;;;;;;15.15;9.98;;;;;;;8.72;38.63;101876.00;5074075;28;20039;-75
2024/03/07 11:13:53;;;;;;;14.75;9.05;;;;;;;8.74;38.66;101867.72;5072192;28;20040;-74
2024/03/07 11:16:23;;;;;;;15.13;9.88;;;;;;;8.78;38.20;101866.53;5078873;28;20503;-75
2024/03/07 11:19:26;;;;;;;15.77;10.32;;;;;;;8.79;37.30;101857.38;5097362;28;20339;-75
2024/03/07 11:21:55;;;;;;;16.87;10.30;;;;;;;8.77;38.37;101857.47;5089655;28;20062;-75
2024/03/07 11:24:30;;;;;;;14.43;9.73;;;;;;;8.84;37.89;101850.66;5084749;28;20278;-74
2024/03/07 11:26:59;;;;;;;15.32;9.68;;;;;;;8.85;38.33;101852.41;5087793;28;20117;-75